Time;durP1;ratioP1;P1;durP2;ratioP2;P2;SDS_P1;SDS_P2;PMS_P1;PMS_P2;Temp;Humidity;BMP_temperature;BMP_pressure;BME280_temperature;BME280_humidity;BME280_pressure;Samples;Min_cycle;Max_cycle;Signal;HPM_P1;HPM_P2
2021/10/28 00:12:12;;;;;;;615.65;567.20;;;14.70;90.80;;;13.78;100.00;100854.59;5052093;28;20840;-67
2021/10/28 00:12:56;;;;;;;593.28;544.88;;;14.60;90.80;;;13.71;100.00;100859.66;5052078;28;20408;-68
2021/10/28 00:15:30;;;;;;;591.25;542.80;;;14.50;91.00;;;13.77;100.00;100857.63;5051784;28;20891;-71
2021/10/28 00:18:11;;;;;;;602.50;554.05;;;14.50;91.20;;;13.86;100.00;100859.25;5052027;28;20417;-67
2021/10/28 00:20:41;;;;;;;601.03;552.73;;;14.70;91.40;;;13.88;100.00;100854.34;5051032;28;20512;-70
2021/10/28 00:23:10;;;;;;;602.67;554.25;;;14.70;91.30;;;13.85;100.00;100851.44;5052012;28;20417;-65
2021/10/28 00:25:40;;;;;;;597.95;549.67;;;14.60;91.00;;;13.81;100.00;100845.00;5051868;28;20871;-67
2021/10/28 00:28:10;;;;;;;600.47;551.97;;;14.60;91.10;;;13.85;100.00;100846.00;5064482;28;20509;-69
2021/10/28 00:30:38;;;;;;;595.67;547.33;;;14.60;91.10;;;13.88;100.00;100842.66;5070778;28;20997;-70
2021/10/28 00:33:06;;;;;;;604.17;555.60;;;14.70;91.10;;;13.86;100.00;100840.25;5071686;28;20503;-65
2021/10/28 00:35:35;;;;;;;595.83;547.53;;;14.60;91.00;;;13.82;100.00;100836.56;5072109;28;20510;-69
2021/10/28 06:25:34;;;;;;;433.48;387.67;;;11.90;85.80;;;11.27;100.00;100766.41;5069119;28;20797;-67
2021/10/28 06:28:03;;;;;;;436.17;390.63;;;12.00;86.10;;;11.38;100.00;100778.69;5069789;28;20407;-69
2021/10/28 06:30:31;;;;;;;425.60;379.75;;;12.10;86.40;;;11.45;100.00;100777.22;5068789;28;20411;-69
2021/10/28 06:33:04;;;;;;;437.05;390.83;;;12.20;86.30;;;11.48;100.00;100782.03;5069651;28;20442;-70
2021/10/28 06:35:32;;;;;;;437.17;391.10;;;12.20;85.60;;;11.51;100.00;100789.56;5069861;28;20404;-67
2021/10/28 06:38:00;;;;;;;432.45;386.67;;;12.20;85.50;;;11.52;100.00;100780.31;5069531;28;20851;-66
2021/10/28 06:40:29;;;;;;;440.83;395.23;;;12.30;85.10;;;11.54;100.00;100782.75;5068780;28;20423;-68
2021/10/28 06:42:59;;;;;;;447.63;401.60;;;12.20;85.30;;;11.56;100.00;100794.09;5069631;28;20507;-68
2021/10/28 06:45:27;;;;;;;450.90;404.90;;;12.30;85.70;;;11.51;100.00;100786.06;5069784;28;20936;-67
2021/10/28 06:47:55;;;;;;;455.67;409.08;;;12.30;85.40;;;11.45;100.00;100789.94;5070038;28;20431;-71
2021/10/28 06:50:27;;;;;;;464.60;417.92;;;12.10;85.40;;;11.41;100.00;100778.09;5068595;28;20809;-71
2021/10/28 06:52:57;;;;;;;459.15;412.73;;;12.20;85.90;;;11.42;100.00;100771.59;5069669;28;20513;-67
2021/10/28 06:55:36;;;;;;;453.83;407.73;;;12.20;85.90;;;11.45;100.00;100769.09;5069220;28;20898;-68
2021/10/28 07:03:37;;;;;;;462.08;416.27;;;12.60;87.30;;;11.58;100.00;100770.22;5069376;28;20452;-67
2021/10/28 07:06:09;;;;;;;463.50;417.65;;;12.40;85.10;;;11.28;100.00;100770.72;5068415;28;20415;-67
2021/10/28 07:08:40;;;;;;;462.25;416.17;;;12.10;84.50;;;11.14;100.00;100776.09;5068306;28;20419;-68
2021/10/28 07:11:10;;;;;;;454.95;408.80;;;11.90;85.30;;;11.09;100.00;100784.28;5068876;28;20812;-72
2021/10/28 07:13:43;;;;;;;443.83;397.58;;;11.90;85.90;;;11.14;100.00;100781.50;5069576;28;20423;-68
2021/10/28 07:16:20;;;;;;;442.58;396.55;;;12.00;86.00;;;11.40;100.00;100784.59;5069622;28;20439;-65
2021/10/28 07:18:54;;;;;;;451.80;405.83;;;12.20;86.00;;;11.80;100.00;100777.72;5069688;28;20415;-70
2021/10/28 07:21:42;;;;;;;475.40;428.80;;;12.60;85.40;;;12.24;100.00;100775.25;5068601;28;20408;-65
2021/10/28 07:35:53;;;;;;;618.80;570.50;;;15.10;81.60;;;14.70;100.00;100783.81;5069053;28;20396;-68
2021/10/28 07:38:40;;;;;;;648.00;598.20;;;15.60;80.30;;;15.35;100.00;100791.03;5068617;28;20922;-67
2021/10/28 08:04:44;;;;;;;751.88;701.00;;;17.30;77.20;;;16.57;100.00;100779.44;5045663;28;20443;-65
2021/10/28 08:06:25;;;;;;;426.50;383.35;;;17.40;77.00;;;16.98;100.00;100790.41;5053951;28;20237;-67
2021/10/28 08:17:35;;;;;;;767.53;715.25;;;18.00;78.10;;;17.43;100.00;100794.03;5052415;28;21041;-67
2021/10/28 08:20:10;;;;;;;785.50;733.10;;;18.10;78.60;;;17.68;100.00;100788.69;5051197;28;20815;-66
2021/10/28 08:22:40;;;;;;;789.22;737.33;;;18.30;78.90;;;17.95;100.00;100790.78;5052195;28;20417;-67
2021/10/28 08:30:39;;;;;;;815.42;763.22;;;19.10;75.50;;;18.76;100.00;100801.66;5050898;28;20401;-68
2021/10/28 08:33:07;;;;;;;829.57;776.83;;;19.40;74.40;;;19.00;100.00;100793.38;5051801;28;20448;-66
2021/10/28 08:35:37;;;;;;;841.73;788.60;;;19.60;73.10;;;19.24;100.00;100791.72;5051769;28;20452;-71
2021/10/28 08:38:06;;;;;;;842.53;789.17;;;19.80;70.20;;;19.38;100.00;100792.13;5051801;28;20429;-66
2021/10/28 08:40:34;;;;;;;858.42;804.85;;;20.00;68.90;;;19.57;100.00;100790.38;5050595;28;20910;-65
2021/10/28 08:43:04;;;;;;;864.00;809.97;;;20.20;68.90;;;19.79;100.00;100788.19;5051570;28;20475;-68
2021/10/28 08:45:35;;;;;;;868.28;813.95;;;20.40;68.70;;;19.98;100.00;100785.53;5051705;28;20875;-70
2021/10/28 08:48:06;;;;;;;879.45;825.25;;;20.60;67.90;;;20.05;100.00;100789.28;5051422;28;20883;-69
2021/10/28 08:50:38;;;;;;;890.70;836.07;;;20.70;67.70;;;20.23;100.00;100784.22;5050510;28;20807;-69
2021/10/28 08:53:22;;;;;;;894.47;839.92;;;20.90;68.20;;;20.38;100.00;100790.88;5051550;28;20409;-65
2021/10/28 08:55:54;;;;;;;897.83;843.05;;;21.00;68.70;;;20.57;100.00;100791.75;5051357;28;20957;-68
2021/10/28 08:58:48;;;;;;;901.03;845.97;;;21.20;69.50;;;20.77;100.00;100786.28;5051293;28;20440;-67
2021/10/28 09:24:15;;;;;;;963.90;907.28;;;22.60;62.20;;;22.01;100.00;100765.59;5051138;28;20446;-65
2021/10/28 09:26:57;;;;;;;959.58;902.65;;;22.70;60.90;;;22.14;100.00;100766.19;5050774;28;20460;-66
2021/10/28 09:29:36;;;;;;;965.75;908.80;;;22.80;61.30;;;22.21;100.00;100767.13;5050615;28;20412;-65
2021/10/28 09:32:18;;;;;;;963.17;906.67;;;22.90;60.70;;;22.20;100.00;100762.78;5050462;28;20955;-67
2021/10/28 09:35:13;;;;;;;965.05;908.35;;;22.90;60.10;;;22.28;100.00;100771.97;5050883;28;20411;-66
2021/10/28 09:46:33;;;;;;;976.50;919.30;;;23.30;59.60;;;22.74;100.00;100762.41;5037219;28;20417;-66
2021/10/28 09:52:05;;;;;;;993.28;935.58;;;23.50;59.50;;;22.88;98.37;100772.88;5049787;28;20491;-66
2021/10/28 09:54:44;;;;;;;996.38;938.63;;;23.60;58.40;;;22.90;98.38;100764.19;5050373;28;20424;-68
2021/10/28 10:00:20;;;;;;;1007.15;948.88;;;23.60;58.70;;;23.12;97.61;100760.56;5036015;28;20425;-65
2021/10/28 10:02:54;;;;;;;1000.78;942.78;;;23.80;58.40;;;23.13;92.73;100764.91;5050073;28;20494;-65
2021/10/28 10:05:23;;;;;;;1012.55;953.97;;;23.80;57.60;;;23.18;90.87;100767.31;5050200;28;20429;-67
2021/10/28 10:07:53;;;;;;;1016.57;957.90;;;23.80;57.30;;;23.27;91.85;100759.56;5050192;28;20415;-64
2021/10/28 10:10:21;;;;;;;1007.40;949.00;;;23.90;57.40;;;23.38;95.55;100760.47;5048919;28;20464;-67
2021/10/28 10:12:51;;;;;;;1010.60;952.17;;;24.00;58.20;;;23.52;94.33;100760.66;5049718;28;20452;-65
2021/10/28 10:15:21;;;;;;;1008.78;950.58;;;24.20;58.00;;;23.70;91.25;100758.88;5049895;28;20459;-65
2021/10/28 10:17:52;;;;;;;1013.97;955.72;;;24.40;57.50;;;23.84;87.00;100750.72;5049926;28;20824;-66
2021/10/28 10:20:29;;;;;;;1018.75;960.22;;;24.50;56.80;;;23.94;84.46;100752.00;5049141;28;20410;-65
2021/10/28 10:23:21;;;;;;;1022.72;963.60;;;24.60;56.40;;;23.92;84.82;100746.06;5049720;28;20844;-66
2021/10/28 10:26:09;;;;;;;1028.53;969.33;;;24.60;56.40;;;24.01;86.60;100745.75;5049502;28;20903;-67
2021/10/28 10:29:26;;;;;;;1022.40;963.67;;;24.60;56.80;;;23.97;86.25;100748.47;5049667;28;20998;-68
2021/10/28 11:22:53;;;;;;;1031.40;971.58;;;24.70;59.20;;;24.02;100.00;100714.94;5037887;28;20883;-67
2021/10/28 11:25:46;;;;;;;1027.93;968.42;;;24.80;60.30;;;24.07;100.00;100709.09;5048994;28;20417;-68
2021/10/28 12:25:22;;;;;;;1022.42;963.10;;;24.70;66.40;;;23.52;100.00;100683.38;5030552;28;20770;-68
2021/10/28 12:28:38;;;;;;;1018.53;959.35;;;24.40;67.50;;;23.38;100.00;100683.19;5031630;28;20422;-66
2021/10/28 12:45:35;;;;;;;772.25;721.92;;;24.30;68.80;;;23.81;100.00;100656.78;5032409;28;20237;-65
2021/10/28 12:48:32;;;;;;;989.80;931.78;;;24.40;67.90;;;23.70;100.00;100653.16;5031061;28;20434;-67
2021/10/28 12:51:25;;;;;;;1008.00;949.38;;;24.40;67.80;;;23.73;100.00;100657.91;5030228;28;20415;-67
2021/10/28 13:02:45;;;;;;;1007.80;948.97;;;24.20;68.50;;;23.31;100.00;100628.75;5030587;28;20715;-65
2021/10/28 13:49:36;;;;;;;1033.07;973.65;;;24.70;70.40;;;24.12;100.00;100584.44;5029897;28;20449;-67
2021/10/28 13:52:18;;;;;;;1031.87;972.43;;;24.90;70.50;;;24.25;100.00;100577.41;5029830;28;20440;-67
2021/10/28 13:55:10;;;;;;;1022.53;963.00;;;25.00;70.20;;;24.33;100.00;100575.47;5029971;28;20423;-69
2021/10/28 13:57:49;;;;;;;776.22;725.67;;;25.10;70.10;;;24.53;100.00;100554.59;5031079;28;20254;-68
2021/10/28 14:00:47;;;;;;;745.25;696.28;;;25.10;70.30;;;24.56;100.00;100553.84;5029701;28;20218;-66
2021/10/28 14:15:09;;;;;;;1019.67;960.92;;;24.90;69.30;;;24.18;100.00;100549.75;5029462;28;20402;-67
2021/10/28 15:30:02;;;;;;;1011.05;951.95;;;24.30;73.10;;;23.35;100.00;100513.69;5084556;28;20919;-67
2021/10/28 15:35:32;;;;;;;1004.60;946.17;;;23.90;74.70;;;22.83;100.00;100522.28;5054056;28;20937;-67
2021/10/28 16:00:49;;;;;;;979.13;921.30;;;23.20;78.10;;;22.33;100.00;100532.78;5047158;28;20486;-68
2021/10/28 16:22:36;;;;;;;955.63;898.17;;;22.40;80.10;;;21.61;100.00;100528.63;5070745;28;20521;-70
2021/10/28 16:25:05;;;;;;;951.25;894.58;;;22.40;79.70;;;21.59;100.00;100519.91;5070668;28;20502;-64
2021/10/28 16:27:33;;;;;;;955.55;898.33;;;22.40;79.50;;;21.52;100.00;100544.59;5070748;28;20969;-67
2021/10/28 16:30:01;;;;;;;952.35;895.25;;;22.30;79.40;;;21.42;100.00;100542.47;5069687;28;20599;-65
2021/10/28 16:32:29;;;;;;;953.25;896.13;;;22.30;79.70;;;21.42;100.00;100547.97;5071039;28;20498;-66
2021/10/28 16:34:59;;;;;;;945.08;888.53;;;22.20;79.50;;;21.42;100.00;100546.00;5071113;28;20898;-68
2021/10/28 16:37:29;;;;;;;941.92;885.03;;;22.20;80.70;;;21.32;100.00;100554.09;5071501;28;20419;-66
2021/10/28 16:39:57;;;;;;;953.42;896.30;;;22.20;81.80;;;21.19;100.00;100551.53;5070636;28;20407;-67
2021/10/28 16:42:25;;;;;;;941.17;884.40;;;22.10;82.20;;;21.10;100.00;100544.69;5071166;28;20486;-66
2021/10/28 16:44:53;;;;;;;945.45;888.67;;;22.00;82.40;;;20.96;100.00;100544.41;5070480;28;20411;-70
2021/10/28 16:47:24;;;;;;;937.60;881.28;;;21.90;83.10;;;20.84;100.00;100547.34;5071070;28;20498;-63
2021/10/28 16:49:53;;;;;;;936.42;879.58;;;21.70;83.30;;;20.79;100.00;100547.66;5070551;28;20476;-66
2021/10/28 16:52:22;;;;;;;931.13;874.78;;;21.70;83.60;;;20.66;100.00;100542.31;5070923;28;20453;-69
2021/10/28 16:54:50;;;;;;;927.88;871.80;;;21.50;83.60;;;20.54;100.00;100553.47;5071111;28;20415;-69
2021/10/28 16:57:18;;;;;;;923.85;867.33;;;21.40;83.90;;;20.49;100.00;100552.94;5070972;28;20447;-64
2021/10/28 16:59:46;;;;;;;917.10;861.28;;;21.30;83.70;;;20.37;100.00;100542.91;5070363;28;20439;-68
2021/10/28 17:02:15;;;;;;;920.30;864.03;;;21.20;83.60;;;20.32;100.00;100547.91;5070866;28;20871;-66
2021/10/28 17:04:45;;;;;;;914.33;858.17;;;21.20;84.20;;;20.23;100.00;100550.81;5070901;28;20411;-63
2021/10/28 17:07:13;;;;;;;904.50;848.95;;;21.10;84.80;;;20.14;100.00;100555.75;5070690;28;20892;-67
2021/10/28 17:09:42;;;;;;;913.40;857.20;;;21.00;85.50;;;20.06;100.00;100551.25;5069910;28;20917;-67
2021/10/28 17:12:11;;;;;;;903.05;847.83;;;20.90;85.80;;;20.02;100.00;100556.66;5070503;28;20439;-66
2021/10/28 17:14:39;;;;;;;909.03;853.63;;;20.90;86.00;;;19.96;100.00;100560.84;5070805;28;20420;-66
2021/10/28 17:17:07;;;;;;;894.88;839.72;;;20.90;86.10;;;19.89;100.00;100559.88;5070803;28;20412;-66
2021/10/28 17:19:35;;;;;;;893.83;838.67;;;20.80;86.40;;;19.82;100.00;100554.25;5069760;28;20451;-64
2021/10/28 17:22:04;;;;;;;889.50;834.58;;;20.70;86.90;;;19.74;100.00;100557.97;5067491;28;21026;-66
2021/10/28 17:24:35;;;;;;;895.17;839.38;;;20.60;87.20;;;19.69;100.00;100558.25;5069446;28;20491;-64
2021/10/28 17:27:05;;;;;;;888.83;833.72;;;20.60;87.70;;;19.64;100.00;100565.59;5070553;28;20914;-66
2021/10/28 17:29:34;;;;;;;891.03;836.10;;;20.50;87.90;;;19.60;100.00;100562.00;5069327;28;20439;-67
2021/10/28 17:32:02;;;;;;;883.88;828.97;;;20.50;87.90;;;19.56;100.00;100561.09;5070027;28;20447;-64
2021/10/28 17:34:33;;;;;;;888.75;833.70;;;20.40;88.00;;;19.53;100.00;100570.03;5070368;28;20462;-67
2021/10/28 17:37:01;;;;;;;888.47;833.47;;;20.40;87.80;;;19.49;100.00;100568.34;5070341;28;20422;-67
2021/10/28 17:39:29;;;;;;;884.95;829.65;;;20.30;87.80;;;19.44;100.00;100569.44;5069892;28;20442;-67
2021/10/28 17:41:59;;;;;;;882.65;827.63;;;20.30;87.90;;;19.39;100.00;100569.72;5070151;28;20481;-67
2021/10/28 17:44:42;;;;;;;877.63;822.50;;;20.20;87.70;;;19.33;100.00;100571.06;5070107;28;20415;-67
2021/10/28 17:47:11;;;;;;;872.70;818.20;;;20.20;87.60;;;19.32;100.00;100574.97;5070096;28;20426;-64
2021/10/28 17:49:40;;;;;;;873.17;818.10;;;20.20;87.80;;;19.26;100.00;100576.41;5069385;28;20786;-65
2021/10/28 17:52:08;;;;;;;870.23;815.53;;;20.10;87.60;;;19.22;100.00;100578.25;5069790;28;20407;-64
2021/10/28 17:54:36;;;;;;;870.03;814.90;;;20.10;88.10;;;19.23;100.00;100581.78;5069916;28;20450;-68
2021/10/28 17:57:05;;;;;;;866.33;811.83;;;20.10;88.30;;;19.17;100.00;100575.78;5069743;28;20419;-68
2021/10/28 17:59:35;;;;;;;871.95;816.80;;;20.00;88.10;;;19.16;100.00;100576.91;5069289;28;20506;-64
2021/10/28 18:02:04;;;;;;;867.40;812.45;;;20.00;88.40;;;19.15;100.00;100571.81;5069878;28;20918;-66
2021/10/28 18:04:33;;;;;;;869.75;814.88;;;19.90;88.70;;;19.14;100.00;100567.47;5070187;28;20494;-69
2021/10/28 18:07:01;;;;;;;872.97;817.92;;;20.00;88.80;;;19.14;100.00;100562.78;5070036;28;20870;-65
2021/10/28 18:09:29;;;;;;;878.60;823.50;;;20.00;88.90;;;19.13;100.00;100563.91;5069696;28;20408;-64
2021/10/28 18:11:58;;;;;;;872.38;816.63;;;19.90;88.90;;;19.13;100.00;100563.91;5069841;28;20563;-69
2021/10/28 18:14:27;;;;;;;872.58;817.53;;;19.90;89.00;;;19.09;100.00;100563.81;5070043;28;20493;-68
2021/10/28 18:16:58;;;;;;;867.70;812.17;;;19.90;88.90;;;19.09;100.00;100565.75;5069923;28;20747;-66
2021/10/28 18:19:26;;;;;;;866.03;810.73;;;19.90;88.90;;;19.07;100.00;100555.16;5069688;28;20408;-67
2021/10/28 18:21:56;;;;;;;871.07;816.03;;;19.90;89.00;;;19.04;100.00;100557.81;5069204;28;20901;-65
2021/10/28 18:24:25;;;;;;;875.63;820.42;;;19.90;89.20;;;19.06;100.00;100555.50;5069796;28;20491;-68
2021/10/28 18:26:54;;;;;;;873.03;817.72;;;19.90;89.20;;;19.07;100.00;100565.34;5069818;28;20473;-69
2021/10/28 18:29:22;;;;;;;862.38;807.20;;;19.90;89.20;;;19.04;100.00;100560.56;5069594;28;20439;-68
2021/10/28 18:31:50;;;;;;;872.67;816.95;;;19.90;89.20;;;19.03;100.00;100565.22;5069265;28;20894;-68
2021/10/28 18:34:20;;;;;;;860.38;805.42;;;19.90;89.00;;;19.00;100.00;100565.94;5069818;28;20443;-67
2021/10/28 18:36:50;;;;;;;860.10;804.25;;;19.80;89.00;;;18.99;100.00;100569.84;5069697;28;20415;-66
2021/10/28 18:39:19;;;;;;;853.72;798.58;;;19.80;89.10;;;18.99;100.00;100566.31;5069451;28;20465;-64
2021/10/28 18:41:48;;;;;;;855.55;799.80;;;19.80;88.90;;;18.96;100.00;100559.59;5068658;28;20528;-70
2021/10/28 18:44:16;;;;;;;853.22;798.83;;;19.80;89.00;;;18.94;100.00;100544.63;5069535;28;20511;-70
2021/10/28 18:46:45;;;;;;;856.40;801.70;;;19.70;88.90;;;18.91;100.00;100543.38;5069688;28;20412;-69
2021/10/28 18:49:13;;;;;;;856.85;802.20;;;19.70;88.90;;;18.85;100.00;100538.50;5069283;28;20420;-65
2021/10/28 18:51:44;;;;;;;857.83;803.63;;;19.70;88.70;;;18.77;100.00;100539.50;5068683;28;20411;-69
2021/10/28 18:54:14;;;;;;;852.83;798.55;;;19.60;88.70;;;18.74;100.00;100545.66;5069581;28;20415;-67
2021/10/28 18:56:43;;;;;;;841.92;788.13;;;19.60;89.00;;;18.70;100.00;100539.28;5069546;28;20476;-66
2021/10/28 18:59:11;;;;;;;853.03;798.67;;;19.50;88.90;;;18.66;100.00;100541.16;5069616;28;20604;-65
2021/10/28 19:01:39;;;;;;;845.25;791.17;;;19.50;88.90;;;18.64;100.00;100541.50;5068542;28;20443;-64
2021/10/28 19:04:07;;;;;;;845.17;791.33;;;19.40;88.90;;;18.62;100.00;100552.00;5069238;28;20485;-66
2021/10/28 19:06:35;;;;;;;843.53;789.10;;;19.40;88.80;;;18.62;100.00;100556.69;5069623;28;20820;-68
2021/10/28 19:09:05;;;;;;;846.60;792.30;;;19.40;88.80;;;18.60;100.00;100570.75;5071616;28;20419;-66
2021/10/28 19:11:33;;;;;;;844.67;790.70;;;19.40;88.80;;;18.58;100.00;100566.72;5072492;28;20411;-65
2021/10/28 19:14:01;;;;;;;836.58;782.53;;;19.40;88.70;;;18.53;100.00;100571.34;5073046;28;20415;-65
2021/10/28 19:16:29;;;;;;;849.05;794.67;;;19.30;89.00;;;18.49;100.00;100572.38;5073113;28;20455;-66
2021/10/28 19:18:57;;;;;;;840.78;786.72;;;19.30;89.00;;;18.41;100.00;100574.09;5072952;28;20508;-68
2021/10/28 19:21:25;;;;;;;838.63;784.70;;;19.20;89.10;;;18.35;100.00;100570.00;5072111;28;20524;-66
2021/10/28 19:23:54;;;;;;;837.47;783.50;;;19.10;89.10;;;18.31;100.00;100568.28;5072931;28;20431;-68
2021/10/28 19:26:23;;;;;;;832.80;778.97;;;19.10;89.50;;;18.26;100.00;100563.88;5072911;28;20778;-70
2021/10/28 19:28:52;;;;;;;840.03;785.83;;;19.10;89.70;;;18.22;100.00;100554.75;5072846;28;20454;-70
2021/10/28 19:31:22;;;;;;;835.17;781.00;;;19.00;90.00;;;18.23;100.00;100556.38;5071838;28;20416;-70
2021/10/28 19:33:53;;;;;;;830.85;777.08;;;19.00;90.10;;;18.26;100.00;100554.88;5072963;28;20833;-67
2021/10/28 19:36:31;;;;;;;833.47;779.58;;;19.00;90.10;;;18.26;100.00;100558.41;5072872;28;20419;-65
2021/10/28 19:47:17;;;;;;;835.00;781.45;;;19.20;90.30;;;18.39;100.00;100567.38;5072667;28;20391;-68
2021/10/28 19:49:46;;;;;;;834.90;780.88;;;19.20;90.30;;;18.39;100.00;100557.19;5071856;28;20447;-67
2021/10/28 19:52:16;;;;;;;836.23;782.47;;;19.20;90.30;;;18.38;100.00;100563.84;5072399;28;20506;-67
2021/10/28 19:54:48;;;;;;;842.40;788.35;;;19.20;90.20;;;18.35;100.00;100555.53;5072413;28;20517;-66
2021/10/28 19:57:20;;;;;;;837.33;783.67;;;19.10;90.00;;;18.34;100.00;100549.25;5072505;28;20411;-65
2021/10/28 19:59:52;;;;;;;839.13;784.90;;;19.20;90.10;;;18.34;100.00;100565.66;5071661;28;20412;-66
2021/10/28 20:02:27;;;;;;;834.53;780.53;;;19.20;90.00;;;18.33;100.00;100561.31;5071945;28;20412;-69
2021/10/28 20:05:21;;;;;;;839.60;785.83;;;19.10;89.90;;;18.33;100.00;100560.56;5072234;28;20820;-68
2021/10/28 20:08:16;;;;;;;835.58;781.85;;;19.10;89.80;;;18.30;100.00;100562.03;5072351;28;20463;-68
2021/10/28 20:21:48;;;;;;;510.73;465.38;;;18.90;90.00;;;18.20;100.00;100559.00;5072701;28;20240;-64
2021/10/28 20:24:16;;;;;;;769.10;717.10;;;18.90;90.10;;;18.09;100.00;100566.09;5071765;28;20989;-67
2021/10/28 20:26:44;;;;;;;808.92;755.85;;;18.90;90.20;;;18.10;100.00;100567.69;5071681;28;20469;-67
2021/10/28 20:29:14;;;;;;;811.80;758.97;;;18.80;90.20;;;18.10;100.00;100576.69;5071695;28;20497;-67
2021/10/28 20:31:42;;;;;;;826.53;773.10;;;18.90;90.30;;;18.09;100.00;100575.09;5070850;28;20832;-66
2021/10/28 20:34:16;;;;;;;517.92;472.27;;;18.90;90.20;;;18.17;100.00;100584.31;5072979;28;20562;-68
2021/10/28 20:37:07;;;;;;;774.97;723.00;;;18.90;90.20;;;18.05;100.00;100587.88;5071618;28;20465;-66
2021/10/28 20:39:36;;;;;;;808.00;755.20;;;18.80;90.10;;;18.03;100.00;100584.66;5070718;28;20425;-67
2021/10/28 20:42:05;;;;;;;809.50;756.65;;;18.80;90.20;;;18.00;100.00;100577.97;5071196;28;20556;-65
2021/10/28 20:44:35;;;;;;;823.67;770.22;;;18.80;90.10;;;17.99;100.00;100581.06;5071248;28;20467;-68
2021/10/28 20:47:04;;;;;;;818.00;764.53;;;18.80;90.20;;;17.98;100.00;100587.66;5071558;28;20896;-66
2021/10/28 20:49:33;;;;;;;822.20;768.88;;;18.70;90.20;;;17.95;100.00;100582.88;5070808;28;20842;-66
2021/10/28 20:52:01;;;;;;;820.33;766.60;;;18.70;90.30;;;17.92;100.00;100594.50;5071090;28;20503;-68
2021/10/28 20:54:29;;;;;;;806.35;753.13;;;18.70;90.40;;;17.91;100.00;100599.16;5071302;28;20411;-68
2021/10/28 20:57:02;;;;;;;813.95;761.13;;;18.70;90.60;;;17.91;100.00;100599.16;5071118;28;20408;-67
2021/10/28 20:59:30;;;;;;;826.55;773.05;;;18.70;90.50;;;17.93;100.00;100612.53;5071002;28;20955;-66
2021/10/28 21:02:01;;;;;;;819.90;766.63;;;18.70;90.60;;;17.93;100.00;100605.09;5070986;28;20407;-69
2021/10/28 21:04:29;;;;;;;810.33;757.53;;;18.70;90.60;;;17.93;100.00;100604.31;5071052;28;20471;-68
2021/10/28 21:06:57;;;;;;;809.60;756.40;;;18.70;90.70;;;17.94;100.00;100606.69;5070842;28;20450;-68
2021/10/28 21:09:25;;;;;;;806.85;753.92;;;18.70;90.80;;;17.97;100.00;100607.94;5070567;28;20486;-65
2021/10/28 21:11:53;;;;;;;514.50;469.27;;;18.80;90.90;;;18.05;100.00;100607.03;5071917;28;20237;-67
2021/10/28 21:14:21;;;;;;;761.43;709.77;;;18.70;90.80;;;17.95;100.00;100612.97;5070838;28;20403;-67
2021/10/28 21:16:49;;;;;;;789.92;737.65;;;18.70;91.10;;;17.98;100.00;100615.00;5070841;28;20475;-65
2021/10/28 21:19:18;;;;;;;797.30;744.63;;;18.70;91.00;;;17.98;100.00;100610.34;5070535;28;20502;-64
2021/10/28 21:21:51;;;;;;;807.72;754.42;;;18.70;91.10;;;18.01;100.00;100612.38;5069890;28;20455;-67
2021/10/28 21:24:20;;;;;;;801.92;749.33;;;18.80;91.10;;;18.01;100.00;100608.84;5070665;28;20518;-67
2021/10/28 21:26:48;;;;;;;806.60;753.67;;;18.80;90.90;;;18.03;100.00;100614.78;5070643;28;20411;-67
2021/10/28 21:29:16;;;;;;;804.47;751.67;;;18.80;90.90;;;18.04;100.00;100610.91;5070271;28;20457;-67
2021/10/28 21:31:44;;;;;;;807.92;755.10;;;18.80;90.90;;;18.06;100.00;100610.53;5069241;28;20485;-67
2021/10/28 21:34:12;;;;;;;802.05;749.03;;;18.80;90.80;;;18.06;100.00;100610.53;5070282;28;20443;-65
2021/10/28 21:36:42;;;;;;;798.40;745.92;;;18.80;90.80;;;18.07;100.00;100612.16;5070225;28;20454;-67
2021/10/28 21:39:10;;;;;;;801.17;748.28;;;18.80;90.80;;;18.07;100.00;100596.53;5070250;28;20443;-66
2021/10/28 21:41:38;;;;;;;805.13;752.53;;;18.80;90.80;;;18.05;100.00;100598.81;5069370;28;20447;-66
2021/10/28 21:44:09;;;;;;;796.72;744.28;;;18.80;90.80;;;18.05;100.00;100595.28;5070116;28;20508;-65
2021/10/28 21:46:37;;;;;;;805.63;753.13;;;18.80;90.80;;;18.05;100.00;100587.06;5070201;28;20773;-68
2021/10/28 21:49:05;;;;;;;803.80;751.20;;;18.80;90.70;;;18.05;100.00;100592.56;5069980;28;20435;-69
2021/10/28 21:51:33;;;;;;;801.25;748.38;;;18.80;90.80;;;18.06;100.00;100591.38;5069436;28;20564;-67
2021/10/28 21:54:06;;;;;;;804.60;751.42;;;18.80;90.80;;;18.07;100.00;100602.00;5070144;28;20520;-64
2021/10/28 21:56:38;;;;;;;812.85;759.53;;;18.90;90.90;;;18.08;100.00;100595.41;5070106;28;20909;-66
2021/10/28 21:59:36;;;;;;;816.53;763.17;;;18.90;90.90;;;18.09;100.00;100596.19;5069880;28;20450;-68
2021/10/28 22:02:17;;;;;;;805.40;752.37;;;18.90;90.80;;;18.09;100.00;100590.72;5069824;28;20423;-66
2021/10/28 22:04:55;;;;;;;804.72;751.42;;;18.90;90.90;;;18.09;100.00;100585.25;5070118;28;20428;-69
2021/10/28 22:24:13;;;;;;;804.70;751.60;;;18.90;91.10;;;18.07;100.00;100571.91;5069648;28;20921;-66
2021/10/28 22:26:43;;;;;;;798.47;745.75;;;18.80;91.10;;;18.03;100.00;100571.78;5069658;28;20419;-69
2021/10/28 22:29:11;;;;;;;804.92;751.50;;;18.80;91.10;;;18.02;100.00;100569.41;5069858;28;20472;-65
2021/10/28 22:31:39;;;;;;;803.33;750.20;;;18.80;91.10;;;18.00;100.00;100564.28;5068828;28;20415;-70
2021/10/28 22:34:07;;;;;;;797.80;745.13;;;18.80;91.20;;;18.00;100.00;100566.22;5069612;28;20469;-66
2021/10/28 22:36:39;;;;;;;805.88;752.53;;;18.80;91.20;;;17.97;100.00;100567.69;5069699;28;20415;-68
2021/10/28 22:39:14;;;;;;;802.60;749.97;;;18.80;91.10;;;17.97;100.00;100569.63;5069636;28;20438;-66
2021/10/28 22:41:44;;;;;;;796.80;743.92;;;18.80;91.20;;;17.99;100.00;100559.16;5068920;28;20473;-69
2021/10/28 22:44:13;;;;;;;800.70;747.55;;;18.70;91.10;;;17.96;100.00;100559.84;5072127;28;21146;-68
2021/10/28 22:46:41;;;;;;;799.30;746.33;;;18.80;91.30;;;17.94;100.00;100559.38;5073605;28;20843;-70
2021/10/28 22:49:09;;;;;;;792.65;739.83;;;18.70;91.20;;;17.91;100.00;100557.34;5073653;28;20466;-66
2021/10/28 22:51:37;;;;;;;787.30;734.78;;;18.70;91.20;;;17.88;100.00;100563.50;5072564;28;20411;-67
2021/10/28 22:54:05;;;;;;;789.50;736.67;;;18.70;91.30;;;17.87;100.00;100559.19;5073773;28;20589;-68
2021/10/28 22:56:33;;;;;;;794.35;741.35;;;18.60;91.20;;;17.84;100.00;100557.91;5073622;28;20672;-65
2021/10/28 22:59:05;;;;;;;796.83;743.72;;;18.60;91.20;;;17.81;100.00;100558.59;5073429;28;20568;-68
2021/10/28 23:01:38;;;;;;;806.00;752.67;;;18.60;91.30;;;17.79;100.00;100546.41;5072350;28;20412;-68
2021/10/28 23:07:17;;;;;;;794.95;741.95;;;18.60;91.40;;;17.76;100.00;100547.91;5069565;28;20408;-66
2021/10/28 23:10:17;;;;;;;794.72;741.72;;;18.50;91.50;;;17.75;100.00;100545.53;5072250;28;20455;-67
2021/10/28 23:13:20;;;;;;;794.30;741.15;;;18.50;91.50;;;17.74;100.00;100539.25;5073126;28;20773;-65